createdAt,value
2023-04-30T00:04:42.349Z,5.07
2023-04-30T00:09:52.975Z,3.07
2023-04-30T00:15:02.159Z,3.40
2023-04-30T00:20:11.710Z,4.63
2023-04-30T00:25:21.336Z,5.43
2023-04-30T00:30:29.400Z,3.93
2023-04-30T00:35:37.303Z,3.83
2023-04-30T00:40:48.308Z,3.20
2023-04-30T00:45:57.048Z,3.77
2023-04-30T00:51:06.181Z,3.00
2023-04-30T00:56:17.198Z,3.73
2023-04-30T01:01:27.261Z,3.60
2023-04-30T01:06:35.807Z,5.60
2023-04-30T01:11:45.765Z,3.43
2023-04-30T01:16:57.447Z,5.00
2023-04-30T01:22:07.012Z,3.90
2023-04-30T01:27:16.407Z,6.93
2023-04-30T01:32:25.157Z,8.10
2023-04-30T01:37:35.704Z,4.37
2023-04-30T01:42:45.192Z,6.47
2023-04-30T01:47:56.222Z,6.70
2023-04-30T01:53:07.128Z,5.30
2023-04-30T01:58:16.744Z,4.80
2023-04-30T02:03:25.120Z,5.90
2023-04-30T02:08:34.795Z,7.77
2023-04-30T02:13:43.213Z,7.53
2023-04-30T02:18:51.844Z,8.57
2023-04-30T02:23:59.851Z,6.77
2023-04-30T02:29:13.166Z,9.23
2023-04-30T02:34:23.581Z,6.77
2023-04-30T02:39:31.775Z,7.07
2023-04-30T02:44:39.767Z,6.77
2023-04-30T02:49:47.666Z,6.93
2023-04-30T02:54:55.324Z,6.07
2023-04-30T03:00:02.989Z,6.03
2023-04-30T03:05:11.533Z,6.73
2023-04-30T03:10:19.745Z,6.27
2023-04-30T03:15:28.151Z,7.10
2023-04-30T03:20:37.695Z,10.67
2023-04-30T03:25:45.649Z,7.73
2023-04-30T03:30:55.106Z,10.70
2023-04-30T03:36:03.129Z,10.70
2023-04-30T03:41:11.690Z,11.77
2023-04-30T03:46:19.647Z,7.93
2023-04-30T03:51:29.169Z,8.83
2023-04-30T03:56:38.092Z,7.33
2023-04-30T04:01:46.083Z,8.47
2023-04-30T04:06:55.442Z,9.63
2023-04-30T04:12:03.431Z,9.03
2023-04-30T04:17:12.841Z,7.20
2023-04-30T04:22:22.228Z,8.13
2023-04-30T04:27:31.397Z,6.57
2023-04-30T04:32:40.588Z,7.53
2023-04-30T04:37:48.982Z,7.47
2023-04-30T04:42:56.815Z,6.67
2023-04-30T04:48:04.836Z,6.70
2023-04-30T04:53:12.834Z,7.90
2023-04-30T04:58:21.000Z,8.30
2023-04-30T05:03:30.177Z,8.77
2023-04-30T05:08:38.933Z,7.53
2023-04-30T05:13:48.297Z,8.87
2023-04-30T05:18:56.409Z,8.57
2023-04-30T05:24:05.058Z,8.57
2023-04-30T05:29:12.788Z,9.63
2023-04-30T05:34:21.695Z,8.83
2023-04-30T05:39:30.552Z,10.57
2023-04-30T05:44:40.049Z,13.33
2023-04-30T05:49:49.320Z,8.83
2023-04-30T05:54:57.634Z,9.80
2023-04-30T06:00:08.019Z,12.40
2023-04-30T06:05:17.552Z,10.60
2023-04-30T06:10:27.687Z,10.47
2023-04-30T06:15:37.391Z,12.03
2023-04-30T06:20:45.516Z,11.57
2023-04-30T06:25:54.647Z,9.83
2023-04-30T06:31:05.017Z,10.00
2023-04-30T06:36:15.615Z,10.50
2023-04-30T06:41:26.197Z,8.97
2023-04-30T06:46:35.673Z,8.97
2023-04-30T06:51:44.676Z,10.13
2023-04-30T06:56:53.580Z,10.13
2023-04-30T07:02:02.626Z,14.47
2023-04-30T07:07:11.696Z,14.37
2023-04-30T07:12:23.679Z,13.53
2023-04-30T07:17:37.699Z,10.20
2023-04-30T07:22:47.276Z,9.70
2023-04-30T07:27:58.031Z,9.10
2023-04-30T07:33:08.850Z,9.10
2023-04-30T07:38:24.232Z,8.63
2023-04-30T07:43:35.898Z,7.20
2023-04-30T07:48:46.128Z,7.67
2023-04-30T07:53:55.794Z,7.30
2023-04-30T07:59:04.415Z,6.03
2023-04-30T08:04:14.072Z,5.80
2023-04-30T08:09:22.742Z,6.63
2023-04-30T08:14:30.812Z,6.90
2023-04-30T08:19:39.717Z,6.80
2023-04-30T08:24:49.068Z,8.83
2023-04-30T08:29:58.029Z,11.17
2023-04-30T08:35:08.351Z,9.43
2023-04-30T08:40:17.368Z,8.47
2023-04-30T08:45:26.333Z,11.03
2023-04-30T08:50:36.155Z,13.00
2023-04-30T08:55:50.540Z,7.40
2023-04-30T09:01:01.630Z,7.60
2023-04-30T09:06:10.491Z,7.70
2023-04-30T09:11:22.526Z,13.87
2023-04-30T09:16:33.721Z,5.83
2023-04-30T09:21:42.477Z,8.77
2023-04-30T09:26:52.450Z,8.07
2023-04-30T09:32:04.322Z,4.07
2023-04-30T09:37:13.488Z,9.73
2023-04-30T09:42:21.902Z,3.80
2023-04-30T09:47:33.268Z,3.60
2023-04-30T09:52:42.139Z,2.70
2023-04-30T09:57:51.329Z,2.13
2023-04-30T10:03:01.896Z,2.40
2023-04-30T10:08:13.249Z,2.13
2023-04-30T10:13:25.242Z,1.67
2023-04-30T10:18:36.460Z,1.50
2023-04-30T10:23:48.280Z,1.20
2023-04-30T10:29:02.025Z,1.20
2023-04-30T10:34:13.219Z,1.30
2023-04-30T10:39:24.762Z,0.80
2023-04-30T10:44:36.423Z,0.90
2023-04-30T10:49:49.269Z,1.00
2023-04-30T10:55:02.095Z,0.90
2023-04-30T11:00:12.068Z,1.00
2023-04-30T11:05:23.523Z,1.00
2023-04-30T11:10:35.938Z,1.00
2023-04-30T11:15:48.391Z,0.80
2023-04-30T11:21:01.936Z,0.97
2023-04-30T11:26:13.958Z,1.10
2023-04-30T11:31:26.298Z,1.10
2023-04-30T11:36:36.758Z,0.90
2023-04-30T11:41:47.579Z,0.83
2023-04-30T11:46:56.960Z,0.90
2023-04-30T11:52:11.344Z,0.70
2023-04-30T11:57:21.287Z,1.20
2023-04-30T12:02:29.996Z,1.60
2023-04-30T12:07:38.227Z,1.03
2023-04-30T12:12:47.128Z,1.00
2023-04-30T12:17:59.258Z,0.80
2023-04-30T12:23:08.405Z,0.83
2023-04-30T12:28:17.637Z,0.80
2023-04-30T12:33:27.261Z,0.90
2023-04-30T12:38:35.943Z,1.07
2023-04-30T12:43:45.351Z,2.43
2023-04-30T12:48:55.664Z,1.00
2023-04-30T12:54:04.939Z,1.27
2023-04-30T12:59:16.011Z,2.33
2023-04-30T13:04:24.233Z,1.10
2023-04-30T13:09:33.681Z,0.87
2023-04-30T13:14:43.551Z,1.60
2023-04-30T13:19:54.814Z,0.90
2023-04-30T13:25:03.785Z,4.27
2023-04-30T13:30:13.130Z,3.43
2023-04-30T13:35:23.639Z,1.17
2023-04-30T13:40:31.920Z,1.97
2023-04-30T13:45:41.193Z,3.80
2023-04-30T13:50:51.111Z,3.80
2023-04-30T13:56:00.724Z,6.57
2023-04-30T14:01:10.752Z,3.60
2023-04-30T14:06:20.637Z,3.37
2023-04-30T14:11:30.687Z,3.40
2023-04-30T14:16:43.183Z,1.00
2023-04-30T14:21:53.040Z,0.90
2023-04-30T14:27:03.884Z,1.30
2023-04-30T14:32:18.720Z,4.50
2023-04-30T14:37:28.995Z,1.20
2023-04-30T14:42:38.290Z,1.00
2023-04-30T14:47:46.872Z,0.93
2023-04-30T14:52:56.174Z,0.93
2023-04-30T14:58:08.972Z,0.90
2023-04-30T15:03:18.139Z,0.90
2023-04-30T15:08:28.280Z,0.80
2023-04-30T15:13:38.142Z,1.20
2023-04-30T15:18:47.548Z,1.63
2023-04-30T15:23:55.815Z,0.90
2023-04-30T15:29:03.968Z,1.10
2023-04-30T15:34:12.382Z,1.20
2023-04-30T15:39:21.607Z,1.30
2023-04-30T15:44:30.964Z,2.37
2023-04-30T15:49:39.558Z,4.80
2023-04-30T15:54:47.093Z,1.40
2023-04-30T15:59:56.413Z,4.70
2023-04-30T16:05:05.989Z,2.80
2023-04-30T16:10:15.381Z,6.43
2023-04-30T16:15:25.582Z,4.27
2023-04-30T16:20:34.746Z,1.80
2023-04-30T16:25:43.892Z,1.70
2023-04-30T16:30:52.091Z,1.20
2023-04-30T16:36:00.972Z,1.77
2023-04-30T16:41:09.982Z,1.10
2023-04-30T16:46:19.556Z,1.00
2023-04-30T16:51:29.245Z,1.70
2023-04-30T16:56:39.728Z,1.10
2023-04-30T17:01:48.622Z,1.00
2023-04-30T17:06:58.711Z,1.53
2023-04-30T17:12:07.875Z,1.40
2023-04-30T17:17:18.279Z,2.00
2023-04-30T17:22:29.630Z,2.70
2023-04-30T17:27:38.232Z,2.33
2023-04-30T17:32:47.678Z,1.57
2023-04-30T17:37:56.862Z,1.60
2023-04-30T17:43:05.836Z,1.70
2023-04-30T17:48:15.104Z,1.90
2023-04-30T17:53:24.598Z,2.50
2023-04-30T17:58:33.394Z,3.10
2023-04-30T18:03:43.932Z,5.43
2023-04-30T18:08:54.800Z,1.97
2023-04-30T18:14:02.875Z,1.50
2023-04-30T18:19:12.025Z,1.47
2023-04-30T18:24:21.655Z,2.00
2023-04-30T18:29:30.577Z,1.67
2023-04-30T18:34:38.902Z,3.07
2023-04-30T18:39:48.168Z,1.70
2023-04-30T18:44:57.786Z,1.77
2023-04-30T18:50:07.762Z,1.90
2023-04-30T18:55:16.310Z,2.23
2023-04-30T19:00:28.598Z,1.77
2023-04-30T19:05:38.364Z,6.60
2023-04-30T19:10:52.118Z,4.03
2023-04-30T19:16:01.301Z,3.63
2023-04-30T19:21:10.490Z,4.47
2023-04-30T19:26:19.488Z,5.57
2023-04-30T19:31:28.250Z,2.57
2023-04-30T19:36:37.500Z,2.10
2023-04-30T19:41:47.308Z,1.93
2023-04-30T19:46:56.823Z,2.70
2023-04-30T19:52:05.310Z,3.40
2023-04-30T19:57:14.406Z,2.10
2023-04-30T20:02:23.629Z,5.53
2023-04-30T20:07:34.482Z,3.60
2023-04-30T20:12:42.864Z,4.47
2023-04-30T20:17:52.802Z,2.40
2023-04-30T20:23:07.000Z,2.40
2023-04-30T20:28:16.583Z,2.07
2023-04-30T20:33:27.637Z,2.43
2023-04-30T20:38:37.523Z,1.77
2023-04-30T20:43:49.948Z,1.53
2023-04-30T20:49:00.587Z,1.30
2023-04-30T20:54:10.240Z,1.00
2023-04-30T20:59:18.704Z,1.30
2023-04-30T21:04:27.478Z,1.30
2023-04-30T21:09:37.098Z,1.10
2023-04-30T21:14:46.308Z,1.10
2023-04-30T21:19:57.691Z,1.30
2023-04-30T21:25:07.179Z,1.60
2023-04-30T21:30:17.490Z,1.70
2023-04-30T21:35:30.139Z,1.60
2023-04-30T21:40:40.262Z,2.00
2023-04-30T21:45:49.682Z,2.60
2023-04-30T21:51:00.510Z,2.57
2023-04-30T21:56:12.196Z,2.00
2023-04-30T22:01:21.848Z,1.47
2023-04-30T22:06:31.714Z,1.90
2023-04-30T22:11:39.697Z,1.70
2023-04-30T22:16:48.140Z,1.60
2023-04-30T22:21:57.329Z,1.63
2023-04-30T22:27:08.106Z,2.50
2023-04-30T22:32:16.938Z,1.90
2023-04-30T22:37:27.342Z,3.87
2023-04-30T22:42:37.318Z,5.40
2023-04-30T22:47:48.780Z,2.80
2023-04-30T22:52:57.663Z,3.03
2023-04-30T22:58:07.730Z,3.27
2023-04-30T23:03:16.873Z,2.60
2023-04-30T23:08:26.142Z,4.57
2023-04-30T23:13:36.637Z,2.80
2023-04-30T23:18:47.569Z,2.80
2023-04-30T23:23:56.413Z,4.17
2023-04-30T23:29:07.698Z,2.50
2023-04-30T23:34:17.484Z,2.20
2023-04-30T23:39:26.317Z,2.73
2023-04-30T23:44:36.068Z,3.03
2023-04-30T23:49:46.136Z,2.57
2023-04-30T23:54:54.672Z,5.53
